sensor_id;sensor_type;location;lat;lon;timestamp;temperature;humidity
23717;DHT22;22094;52.130;5.598;2023-12-20T00:01:00;6.10;55.40
23717;DHT22;22094;52.130;5.598;2023-12-20T00:03:57;6.00;65.60
23717;DHT22;22094;52.130;5.598;2023-12-20T00:06:25;5.50;45.80
23717;DHT22;22094;52.130;5.598;2023-12-20T00:09:00;6.10;38.80
23717;DHT22;22094;52.130;5.598;2023-12-20T00:11:26;6.20;43.10
23717;DHT22;22094;52.130;5.598;2023-12-20T00:13:55;5.20;42.40
23717;DHT22;22094;52.130;5.598;2023-12-20T00:16:26;6.20;24.20
23717;DHT22;22094;52.130;5.598;2023-12-20T00:18:52;6.20;29.40
23717;DHT22;22094;52.130;5.598;2023-12-20T00:21:18;6.10;20.70
23717;DHT22;22094;52.130;5.598;2023-12-20T00:23:48;6.10;15.90
23717;DHT22;22094;52.130;5.598;2023-12-20T00:26:14;5.70;20.20
23717;DHT22;22094;52.130;5.598;2023-12-20T00:28:42;6.10;3.40
23717;DHT22;22094;52.130;5.598;2023-12-20T00:31:08;6.30;1.00
23717;DHT22;22094;52.130;5.598;2023-12-20T00:33:36;6.10;1.10
23717;DHT22;22094;52.130;5.598;2023-12-20T00:36:08;5.60;9.50
23717;DHT22;22094;52.130;5.598;2023-12-20T00:38:37;5.50;6.90
23717;DHT22;22094;52.130;5.598;2023-12-20T00:41:14;6.00;9.50
23717;DHT22;22094;52.130;5.598;2023-12-20T00:43:42;6.20;24.80
23717;DHT22;22094;52.130;5.598;2023-12-20T00:46:11;5.50;30.90
23717;DHT22;22094;52.130;5.598;2023-12-20T00:48:37;6.30;9.20
23717;DHT22;22094;52.130;5.598;2023-12-20T00:51:03;5.40;10.40
23717;DHT22;22094;52.130;5.598;2023-12-20T00:53:29;5.40;15.40
23717;DHT22;22094;52.130;5.598;2023-12-20T00:55:55;5.80;13.30
23717;DHT22;22094;52.130;5.598;2023-12-20T00:58:20;6.10;47.50
23717;DHT22;22094;52.130;5.598;2023-12-20T01:00:49;5.70;31.20
23717;DHT22;22094;52.130;5.598;2023-12-20T01:03:15;6.20;33.60
23717;DHT22;22094;52.130;5.598;2023-12-20T01:05:40;4.60;42.90
23717;DHT22;22094;52.130;5.598;2023-12-20T01:08:06;6.40;43.30
23717;DHT22;22094;52.130;5.598;2023-12-20T01:10:32;5.40;45.00
23717;DHT22;22094;52.130;5.598;2023-12-20T01:12:58;5.80;37.10
23717;DHT22;22094;52.130;5.598;2023-12-20T01:15:28;5.30;30.00
23717;DHT22;22094;52.130;5.598;2023-12-20T01:17:54;5.60;38.30
23717;DHT22;22094;52.130;5.598;2023-12-20T01:20:22;5.90;36.20
23717;DHT22;22094;52.130;5.598;2023-12-20T01:22:48;5.70;32.40
23717;DHT22;22094;52.130;5.598;2023-12-20T01:25:13;5.30;42.90
23717;DHT22;22094;52.130;5.598;2023-12-20T01:27:42;5.20;29.60
23717;DHT22;22094;52.130;5.598;2023-12-20T01:30:08;5.60;35.00
23717;DHT22;22094;52.130;5.598;2023-12-20T01:32:36;5.20;52.30
23717;DHT22;22094;52.130;5.598;2023-12-20T01:35:02;4.90;59.70
23717;DHT22;22094;52.130;5.598;2023-12-20T01:37:28;5.20;49.50
23717;DHT22;22094;52.130;5.598;2023-12-20T01:39:54;6.00;47.00
23717;DHT22;22094;52.130;5.598;2023-12-20T01:42:20;6.30;54.60
23717;DHT22;22094;52.130;5.598;2023-12-20T01:44:47;5.60;42.30
23717;DHT22;22094;52.130;5.598;2023-12-20T01:47:13;5.30;24.10
23717;DHT22;22094;52.130;5.598;2023-12-20T01:49:39;5.70;25.90
23717;DHT22;22094;52.130;5.598;2023-12-20T01:52:05;5.30;17.40
23717;DHT22;22094;52.130;5.598;2023-12-20T01:54:31;5.80;18.50
23717;DHT22;22094;52.130;5.598;2023-12-20T01:56:57;6.10;21.00
23717;DHT22;22094;52.130;5.598;2023-12-20T01:59:23;6.10;20.20
23717;DHT22;22094;52.130;5.598;2023-12-20T02:01:48;5.40;15.30
23717;DHT22;22094;52.130;5.598;2023-12-20T02:04:15;6.60;7.70
23717;DHT22;22094;52.130;5.598;2023-12-20T02:06:42;6.50;1.00
23717;DHT22;22094;52.130;5.598;2023-12-20T02:09:09;5.40;1.00
23717;DHT22;22094;52.130;5.598;2023-12-20T02:11:36;6.30;1.00
23717;DHT22;22094;52.130;5.598;2023-12-20T02:14:04;5.70;3.50
23717;DHT22;22094;52.130;5.598;2023-12-20T02:16:30;5.60;1.00
23717;DHT22;22094;52.130;5.598;2023-12-20T02:18:56;5.30;1.00
23717;DHT22;22094;52.130;5.598;2023-12-20T02:21:25;6.40;1.00
23717;DHT22;22094;52.130;5.598;2023-12-20T02:23:57;5.80;1.00
23717;DHT22;22094;52.130;5.598;2023-12-20T02:26:22;5.90;1.00
23717;DHT22;22094;52.130;5.598;2023-12-20T02:28:48;5.80;8.00
23717;DHT22;22094;52.130;5.598;2023-12-20T02:31:14;6.00;10.30
23717;DHT22;22094;52.130;5.598;2023-12-20T02:33:42;5.50;11.30
23717;DHT22;22094;52.130;5.598;2023-12-20T02:36:08;5.40;13.20
23717;DHT22;22094;52.130;5.598;2023-12-20T02:38:33;5.60;11.50
23717;DHT22;22094;52.130;5.598;2023-12-20T02:40:59;5.20;11.50
23717;DHT22;22094;52.130;5.598;2023-12-20T02:43:25;6.50;1.00
23717;DHT22;22094;52.130;5.598;2023-12-20T02:45:50;5.70;1.00
23717;DHT22;22094;52.130;5.598;2023-12-20T02:48:16;5.60;1.00
23717;DHT22;22094;52.130;5.598;2023-12-20T02:50:42;6.90;1.00
23717;DHT22;22094;52.130;5.598;2023-12-20T02:53:08;5.90;1.00
23717;DHT22;22094;52.130;5.598;2023-12-20T02:55:33;5.60;1.00
23717;DHT22;22094;52.130;5.598;2023-12-20T02:57:59;5.70;1.00
23717;DHT22;22094;52.130;5.598;2023-12-20T03:00:25;6.00;1.00
23717;DHT22;22094;52.130;5.598;2023-12-20T03:02:50;5.60;1.00
23717;DHT22;22094;52.130;5.598;2023-12-20T03:05:16;5.00;1.00
23717;DHT22;22094;52.130;5.598;2023-12-20T03:07:42;6.60;1.00
23717;DHT22;22094;52.130;5.598;2023-12-20T03:10:08;5.90;1.00
23717;DHT22;22094;52.130;5.598;2023-12-20T03:12:34;5.50;1.00
23717;DHT22;22094;52.130;5.598;2023-12-20T03:15:00;5.50;1.00
23717;DHT22;22094;52.130;5.598;2023-12-20T03:17:26;6.00;1.00
23717;DHT22;22094;52.130;5.598;2023-12-20T03:19:51;5.30;1.00
23717;DHT22;22094;52.130;5.598;2023-12-20T03:22:17;5.90;1.00
23717;DHT22;22094;52.130;5.598;2023-12-20T03:24:42;6.60;1.00
23717;DHT22;22094;52.130;5.598;2023-12-20T03:27:08;5.30;1.00
23717;DHT22;22094;52.130;5.598;2023-12-20T03:29:34;4.90;1.00
23717;DHT22;22094;52.130;5.598;2023-12-20T03:31:59;5.50;1.00
23717;DHT22;22094;52.130;5.598;2023-12-20T03:34:26;5.80;1.00
23717;DHT22;22094;52.130;5.598;2023-12-20T03:36:52;6.20;1.00
23717;DHT22;22094;52.130;5.598;2023-12-20T03:39:17;5.70;1.00
23717;DHT22;22094;52.130;5.598;2023-12-20T03:41:43;6.00;1.00
23717;DHT22;22094;52.130;5.598;2023-12-20T03:44:09;5.30;1.00
23717;DHT22;22094;52.130;5.598;2023-12-20T03:46:34;6.20;1.00
23717;DHT22;22094;52.130;5.598;2023-12-20T03:49:00;6.20;8.60
23717;DHT22;22094;52.130;5.598;2023-12-20T03:51:26;6.30;4.70
23717;DHT22;22094;52.130;5.598;2023-12-20T03:53:51;6.40;1.90
23717;DHT22;22094;52.130;5.598;2023-12-20T03:56:17;6.30;1.00
23717;DHT22;22094;52.130;5.598;2023-12-20T03:58:42;6.20;1.00
23717;DHT22;22094;52.130;5.598;2023-12-20T04:01:11;6.10;1.00
23717;DHT22;22094;52.130;5.598;2023-12-20T04:03:39;6.30;1.00
23717;DHT22;22094;52.130;5.598;2023-12-20T04:06:05;6.40;1.00
23717;DHT22;22094;52.130;5.598;2023-12-20T04:08:31;4.80;1.00
23717;DHT22;22094;52.130;5.598;2023-12-20T04:10:57;6.10;1.00
23717;DHT22;22094;52.130;5.598;2023-12-20T04:13:22;6.30;1.00
23717;DHT22;22094;52.130;5.598;2023-12-20T04:15:48;5.80;1.00
23717;DHT22;22094;52.130;5.598;2023-12-20T04:18:15;5.60;1.00
23717;DHT22;22094;52.130;5.598;2023-12-20T04:20:41;6.60;1.00
23717;DHT22;22094;52.130;5.598;2023-12-20T04:23:06;7.20;1.00
23717;DHT22;22094;52.130;5.598;2023-12-20T04:25:32;6.90;1.00
23717;DHT22;22094;52.130;5.598;2023-12-20T04:27:58;5.90;1.00
23717;DHT22;22094;52.130;5.598;2023-12-20T04:30:23;6.70;1.00
23717;DHT22;22094;52.130;5.598;2023-12-20T04:32:49;6.40;1.00
23717;DHT22;22094;52.130;5.598;2023-12-20T04:35:15;6.60;1.00
23717;DHT22;22094;52.130;5.598;2023-12-20T04:37:40;6.70;1.00
23717;DHT22;22094;52.130;5.598;2023-12-20T04:40:06;6.80;1.00
23717;DHT22;22094;52.130;5.598;2023-12-20T04:42:33;6.30;1.00
23717;DHT22;22094;52.130;5.598;2023-12-20T04:44:59;6.80;1.00
23717;DHT22;22094;52.130;5.598;2023-12-20T04:47:24;7.00;1.00
23717;DHT22;22094;52.130;5.598;2023-12-20T04:49:50;7.10;1.00
23717;DHT22;22094;52.130;5.598;2023-12-20T04:52:16;7.20;99.90
23717;DHT22;22094;52.130;5.598;2023-12-20T04:54:41;7.10;99.90
23717;DHT22;22094;52.130;5.598;2023-12-20T04:57:07;7.00;99.90
23717;DHT22;22094;52.130;5.598;2023-12-20T04:59:32;6.50;1.00
23717;DHT22;22094;52.130;5.598;2023-12-20T05:01:59;6.50;99.90
23717;DHT22;22094;52.130;5.598;2023-12-20T05:04:25;6.60;1.00
23717;DHT22;22094;52.130;5.598;2023-12-20T05:06:50;6.60;99.90
23717;DHT22;22094;52.130;5.598;2023-12-20T05:09:16;6.70;1.00
23717;DHT22;22094;52.130;5.598;2023-12-20T05:11:41;6.70;99.90
23717;DHT22;22094;52.130;5.598;2023-12-20T05:14:07;6.70;99.90
23717;DHT22;22094;52.130;5.598;2023-12-20T05:16:32;7.20;99.90
23717;DHT22;22094;52.130;5.598;2023-12-20T05:18:58;6.70;1.00
23717;DHT22;22094;52.130;5.598;2023-12-20T05:21:26;6.80;1.00
23717;DHT22;22094;52.130;5.598;2023-12-20T05:23:51;6.90;96.30
23717;DHT22;22094;52.130;5.598;2023-12-20T05:26:17;6.90;99.90
23717;DHT22;22094;52.130;5.598;2023-12-20T05:28:42;6.90;99.90
23717;DHT22;22094;52.130;5.598;2023-12-20T05:31:08;6.80;99.90
23717;DHT22;22094;52.130;5.598;2023-12-20T05:33:34;6.90;1.00
23717;DHT22;22094;52.130;5.598;2023-12-20T05:36:00;6.90;1.00
23717;DHT22;22094;52.130;5.598;2023-12-20T05:38:25;6.90;1.00
23717;DHT22;22094;52.130;5.598;2023-12-20T05:40:51;6.90;1.00
23717;DHT22;22094;52.130;5.598;2023-12-20T05:43:17;7.20;1.00
23717;DHT22;22094;52.130;5.598;2023-12-20T05:45:42;7.80;1.00
23717;DHT22;22094;52.130;5.598;2023-12-20T05:48:08;6.90;1.00
23717;DHT22;22094;52.130;5.598;2023-12-20T05:50:42;6.90;1.00
23717;DHT22;22094;52.130;5.598;2023-12-20T05:53:08;7.00;55.00
23717;DHT22;22094;52.130;5.598;2023-12-20T05:55:35;6.40;1.00
23717;DHT22;22094;52.130;5.598;2023-12-20T05:58:01;6.90;1.00
23717;DHT22;22094;52.130;5.598;2023-12-20T06:00:27;6.90;1.00
23717;DHT22;22094;52.130;5.598;2023-12-20T06:02:52;7.00;1.00
23717;DHT22;22094;52.130;5.598;2023-12-20T06:05:18;7.00;1.00
23717;DHT22;22094;52.130;5.598;2023-12-20T06:07:43;7.40;1.00
23717;DHT22;22094;52.130;5.598;2023-12-20T06:10:10;7.00;1.00
23717;DHT22;22094;52.130;5.598;2023-12-20T06:12:36;7.00;1.00
23717;DHT22;22094;52.130;5.598;2023-12-20T06:15:02;7.10;1.00
23717;DHT22;22094;52.130;5.598;2023-12-20T06:17:28;7.00;99.90
23717;DHT22;22094;52.130;5.598;2023-12-20T06:19:55;7.10;99.90
23717;DHT22;22094;52.130;5.598;2023-12-20T06:22:21;7.10;1.00
23717;DHT22;22094;52.130;5.598;2023-12-20T06:24:47;7.40;1.00
23717;DHT22;22094;52.130;5.598;2023-12-20T06:27:12;7.40;1.00
23717;DHT22;22094;52.130;5.598;2023-12-20T06:29:38;7.10;1.00
23717;DHT22;22094;52.130;5.598;2023-12-20T06:32:04;7.10;99.90
23717;DHT22;22094;52.130;5.598;2023-12-20T06:34:29;7.20;1.00
23717;DHT22;22094;52.130;5.598;2023-12-20T06:36:55;7.20;1.00
23717;DHT22;22094;52.130;5.598;2023-12-20T06:39:21;7.10;1.00
23717;DHT22;22094;52.130;5.598;2023-12-20T06:41:46;7.20;1.90
23717;DHT22;22094;52.130;5.598;2023-12-20T06:44:12;7.60;1.00
23717;DHT22;22094;52.130;5.598;2023-12-20T06:46:37;7.20;1.00
23717;DHT22;22094;52.130;5.598;2023-12-20T06:49:03;7.20;99.90
23717;DHT22;22094;52.130;5.598;2023-12-20T06:51:28;7.20;1.00
23717;DHT22;22094;52.130;5.598;2023-12-20T06:53:56;7.20;1.00
23717;DHT22;22094;52.130;5.598;2023-12-20T06:56:21;7.20;1.00
23717;DHT22;22094;52.130;5.598;2023-12-20T06:58:47;7.90;1.00
23717;DHT22;22094;52.130;5.598;2023-12-20T07:01:16;7.20;1.00
23717;DHT22;22094;52.130;5.598;2023-12-20T07:03:42;7.20;99.90
23717;DHT22;22094;52.130;5.598;2023-12-20T07:06:08;7.20;80.60
23717;DHT22;22094;52.130;5.598;2023-12-20T07:08:34;7.20;1.00
23717;DHT22;22094;52.130;5.598;2023-12-20T07:10:59;7.20;99.90
23717;DHT22;22094;52.130;5.598;2023-12-20T07:13:25;7.20;99.90
23717;DHT22;22094;52.130;5.598;2023-12-20T07:15:50;7.20;99.90
23717;DHT22;22094;52.130;5.598;2023-12-20T07:18:16;7.20;1.00
23717;DHT22;22094;52.130;5.598;2023-12-20T07:20:42;7.30;1.00
23717;DHT22;22094;52.130;5.598;2023-12-20T07:23:08;7.20;1.00
23717;DHT22;22094;52.130;5.598;2023-12-20T07:25:34;7.20;1.00
23717;DHT22;22094;52.130;5.598;2023-12-20T07:27:59;7.20;1.00
23717;DHT22;22094;52.130;5.598;2023-12-20T07:30:25;7.20;99.90
23717;DHT22;22094;52.130;5.598;2023-12-20T07:32:50;7.20;1.00
23717;DHT22;22094;52.130;5.598;2023-12-20T07:35:17;7.20;24.60
23717;DHT22;22094;52.130;5.598;2023-12-20T07:37:43;7.20;99.90
23717;DHT22;22094;52.130;5.598;2023-12-20T07:40:09;7.30;99.90
23717;DHT22;22094;52.130;5.598;2023-12-20T07:42:35;7.30;99.90
23717;DHT22;22094;52.130;5.598;2023-12-20T07:45:01;7.30;1.00
23717;DHT22;22094;52.130;5.598;2023-12-20T07:47:26;7.40;1.00
23717;DHT22;22094;52.130;5.598;2023-12-20T07:49:52;7.30;99.90
23717;DHT22;22094;52.130;5.598;2023-12-20T07:52:18;7.30;99.90
23717;DHT22;22094;52.130;5.598;2023-12-20T07:54:44;7.40;46.50
23717;DHT22;22094;52.130;5.598;2023-12-20T07:57:10;7.40;1.00
23717;DHT22;22094;52.130;5.598;2023-12-20T07:59:36;7.40;1.00
23717;DHT22;22094;52.130;5.598;2023-12-20T08:02:02;7.50;1.00
23717;DHT22;22094;52.130;5.598;2023-12-20T08:04:27;7.60;99.90
23717;DHT22;22094;52.130;5.598;2023-12-20T08:06:53;8.50;99.90
23717;DHT22;22094;52.130;5.598;2023-12-20T08:09:19;7.50;1.00
23717;DHT22;22094;52.130;5.598;2023-12-20T08:11:48;7.50;1.00
23717;DHT22;22094;52.130;5.598;2023-12-20T08:14:14;7.60;1.00
23717;DHT22;22094;52.130;5.598;2023-12-20T08:16:40;7.60;1.00
23717;DHT22;22094;52.130;5.598;2023-12-20T08:19:05;7.50;1.00
23717;DHT22;22094;52.130;5.598;2023-12-20T08:21:31;7.50;1.00
23717;DHT22;22094;52.130;5.598;2023-12-20T08:23:56;7.60;1.00
23717;DHT22;22094;52.130;5.598;2023-12-20T08:26:22;7.60;1.00
23717;DHT22;22094;52.130;5.598;2023-12-20T08:28:49;7.60;1.00
23717;DHT22;22094;52.130;5.598;2023-12-20T08:31:19;7.60;1.00
23717;DHT22;22094;52.130;5.598;2023-12-20T08:33:45;7.60;1.00
23717;DHT22;22094;52.130;5.598;2023-12-20T08:36:12;7.60;1.00
23717;DHT22;22094;52.130;5.598;2023-12-20T08:38:38;7.60;99.90
23717;DHT22;22094;52.130;5.598;2023-12-20T08:41:03;7.70;99.90
23717;DHT22;22094;52.130;5.598;2023-12-20T08:43:34;7.70;1.00
23717;DHT22;22094;52.130;5.598;2023-12-20T08:46:00;7.70;1.00
23717;DHT22;22094;52.130;5.598;2023-12-20T08:48:25;7.80;1.00
23717;DHT22;22094;52.130;5.598;2023-12-20T08:50:51;7.70;1.00
23717;DHT22;22094;52.130;5.598;2023-12-20T08:53:18;7.70;99.90
23717;DHT22;22094;52.130;5.598;2023-12-20T08:55:44;7.80;99.90
23717;DHT22;22094;52.130;5.598;2023-12-20T08:58:10;7.70;99.90
23717;DHT22;22094;52.130;5.598;2023-12-20T09:00:35;7.70;1.00
23717;DHT22;22094;52.130;5.598;2023-12-20T09:03:02;7.70;1.00
23717;DHT22;22094;52.130;5.598;2023-12-20T09:05:28;7.70;1.00
23717;DHT22;22094;52.130;5.598;2023-12-20T09:08:03;8.20;99.90
23717;DHT22;22094;52.130;5.598;2023-12-20T09:10:28;7.60;1.00
23717;DHT22;22094;52.130;5.598;2023-12-20T09:12:54;7.60;99.90
23717;DHT22;22094;52.130;5.598;2023-12-20T09:15:25;7.60;1.00
23717;DHT22;22094;52.130;5.598;2023-12-20T09:17:51;7.50;99.90
23717;DHT22;22094;52.130;5.598;2023-12-20T09:20:17;7.50;99.90
23717;DHT22;22094;52.130;5.598;2023-12-20T09:22:43;7.50;1.00
23717;DHT22;22094;52.130;5.598;2023-12-20T09:25:10;7.50;99.90
23717;DHT22;22094;52.130;5.598;2023-12-20T09:27:36;7.50;1.00
23717;DHT22;22094;52.130;5.598;2023-12-20T09:30:02;7.50;1.00
23717;DHT22;22094;52.130;5.598;2023-12-20T09:32:29;7.50;1.00
23717;DHT22;22094;52.130;5.598;2023-12-20T09:34:55;7.50;1.00
23717;DHT22;22094;52.130;5.598;2023-12-20T09:37:20;7.50;1.00
23717;DHT22;22094;52.130;5.598;2023-12-20T09:39:46;7.50;99.90
23717;DHT22;22094;52.130;5.598;2023-12-20T09:42:12;7.50;99.90
23717;DHT22;22094;52.130;5.598;2023-12-20T09:44:42;7.50;99.90
23717;DHT22;22094;52.130;5.598;2023-12-20T09:47:09;7.60;1.00
23717;DHT22;22094;52.130;5.598;2023-12-20T09:49:35;7.50;35.70
23717;DHT22;22094;52.130;5.598;2023-12-20T09:52:03;8.20;99.90
23717;DHT22;22094;52.130;5.598;2023-12-20T09:54:30;7.60;67.20
23717;DHT22;22094;52.130;5.598;2023-12-20T09:56:56;7.70;1.00
23717;DHT22;22094;52.130;5.598;2023-12-20T09:59:21;7.60;99.90
23717;DHT22;22094;52.130;5.598;2023-12-20T10:01:48;7.80;1.00
23717;DHT22;22094;52.130;5.598;2023-12-20T10:04:15;7.80;99.90
23717;DHT22;22094;52.130;5.598;2023-12-20T10:06:42;7.70;99.90
23717;DHT22;22094;52.130;5.598;2023-12-20T10:09:08;7.80;1.00
23717;DHT22;22094;52.130;5.598;2023-12-20T10:11:38;7.90;1.00
23717;DHT22;22094;52.130;5.598;2023-12-20T10:14:05;8.00;99.90
23717;DHT22;22094;52.130;5.598;2023-12-20T10:16:31;8.10;1.00
23717;DHT22;22094;52.130;5.598;2023-12-20T10:18:58;8.20;99.90
23717;DHT22;22094;52.130;5.598;2023-12-20T10:21:25;8.10;1.00
23717;DHT22;22094;52.130;5.598;2023-12-20T10:23:55;8.20;99.90
23717;DHT22;22094;52.130;5.598;2023-12-20T10:26:25;8.10;24.70
23717;DHT22;22094;52.130;5.598;2023-12-20T10:28:59;11.20;99.90
23717;DHT22;22094;52.130;5.598;2023-12-20T10:33:57;8.60;32.30
23717;DHT22;22094;52.130;5.598;2023-12-20T10:36:25;8.50;99.90
23717;DHT22;22094;52.130;5.598;2023-12-20T10:38:52;8.70;99.90
23717;DHT22;22094;52.130;5.598;2023-12-20T10:41:31;8.50;99.90
23717;DHT22;22094;52.130;5.598;2023-12-20T10:44:03;10.70;99.90
23717;DHT22;22094;52.130;5.598;2023-12-20T10:46:34;8.60;1.00
23717;DHT22;22094;52.130;5.598;2023-12-20T10:49:02;8.50;99.90
23717;DHT22;22094;52.130;5.598;2023-12-20T10:51:28;11.90;1.00
23717;DHT22;22094;52.130;5.598;2023-12-20T10:53:56;8.60;1.00
23717;DHT22;22094;52.130;5.598;2023-12-20T10:58:50;9.30;99.90
23717;DHT22;22094;52.130;5.598;2023-12-20T11:01:19;9.00;1.00
23717;DHT22;22094;52.130;5.598;2023-12-20T11:03:53;9.20;1.00
23717;DHT22;22094;52.130;5.598;2023-12-20T11:06:30;9.10;99.90
23717;DHT22;22094;52.130;5.598;2023-12-20T11:09:16;9.30;99.90
23717;DHT22;22094;52.130;5.598;2023-12-20T11:12:07;9.40;1.00
23717;DHT22;22094;52.130;5.598;2023-12-20T11:17:11;9.30;1.00
23717;DHT22;22094;52.130;5.598;2023-12-20T11:22:38;9.40;1.00
23717;DHT22;22094;52.130;5.598;2023-12-20T11:25:10;9.70;1.00
23717;DHT22;22094;52.130;5.598;2023-12-20T11:27:40;9.50;1.00
23717;DHT22;22094;52.130;5.598;2023-12-20T11:30:06;9.40;1.00
23717;DHT22;22094;52.130;5.598;2023-12-20T11:32:35;9.40;1.00
23717;DHT22;22094;52.130;5.598;2023-12-20T11:35:17;9.40;1.00
23717;DHT22;22094;52.130;5.598;2023-12-20T11:37:44;9.40;1.00
23717;DHT22;22094;52.130;5.598;2023-12-20T11:40:14;9.50;1.00
23717;DHT22;22094;52.130;5.598;2023-12-20T11:42:41;9.60;1.00
23717;DHT22;22094;52.130;5.598;2023-12-20T11:45:10;10.20;1.00
23717;DHT22;22094;52.130;5.598;2023-12-20T11:50:03;10.30;1.00
23717;DHT22;22094;52.130;5.598;2023-12-20T11:54:57;9.50;1.00
23717;DHT22;22094;52.130;5.598;2023-12-20T11:57:22;9.90;1.00
23717;DHT22;22094;52.130;5.598;2023-12-20T11:59:48;9.60;1.00
23717;DHT22;22094;52.130;5.598;2023-12-20T12:02:14;9.30;1.00
23717;DHT22;22094;52.130;5.598;2023-12-20T12:04:43;9.50;1.00
23717;DHT22;22094;52.130;5.598;2023-12-20T12:07:09;10.10;1.00
23717;DHT22;22094;52.130;5.598;2023-12-20T12:09:34;9.10;1.00
23717;DHT22;22094;52.130;5.598;2023-12-20T12:12:00;10.20;1.00
23717;DHT22;22094;52.130;5.598;2023-12-20T12:14:26;9.40;1.00
23717;DHT22;22094;52.130;5.598;2023-12-20T12:16:52;9.60;1.00
23717;DHT22;22094;52.130;5.598;2023-12-20T12:19:22;9.50;1.00
23717;DHT22;22094;52.130;5.598;2023-12-20T12:21:49;9.50;1.00
23717;DHT22;22094;52.130;5.598;2023-12-20T12:26:40;9.50;1.00
23717;DHT22;22094;52.130;5.598;2023-12-20T12:29:09;9.60;1.00
23717;DHT22;22094;52.130;5.598;2023-12-20T12:34:01;12.50;1.00
23717;DHT22;22094;52.130;5.598;2023-12-20T12:36:28;9.60;1.00
23717;DHT22;22094;52.130;5.598;2023-12-20T12:38:56;9.50;1.00
23717;DHT22;22094;52.130;5.598;2023-12-20T12:41:22;9.70;1.00
23717;DHT22;22094;52.130;5.598;2023-12-20T12:48:40;9.60;1.00
23717;DHT22;22094;52.130;5.598;2023-12-20T12:51:06;9.60;1.00
23717;DHT22;22094;52.130;5.598;2023-12-20T12:53:32;12.90;1.00
23717;DHT22;22094;52.130;5.598;2023-12-20T13:00:51;9.60;1.00
23717;DHT22;22094;52.130;5.598;2023-12-20T13:03:16;9.50;1.00
23717;DHT22;22094;52.130;5.598;2023-12-20T13:05:42;10.60;1.00
23717;DHT22;22094;52.130;5.598;2023-12-20T13:08:08;6.70;1.00
23717;DHT22;22094;52.130;5.598;2023-12-20T13:13:03;6.80;1.00
23717;DHT22;22094;52.130;5.598;2023-12-20T13:15:29;9.10;1.00
23717;DHT22;22094;52.130;5.598;2023-12-20T13:17:56;9.40;1.00
23717;DHT22;22094;52.130;5.598;2023-12-20T13:22:48;9.40;1.00
23717;DHT22;22094;52.130;5.598;2023-12-20T13:27:42;9.30;1.00
23717;DHT22;22094;52.130;5.598;2023-12-20T13:30:09;9.30;99.90
23717;DHT22;22094;52.130;5.598;2023-12-20T13:32:34;9.20;99.90
23717;DHT22;22094;52.130;5.598;2023-12-20T13:35:00;9.50;99.90
23717;DHT22;22094;52.130;5.598;2023-12-20T13:37:26;9.20;99.90
23717;DHT22;22094;52.130;5.598;2023-12-20T13:39:52;9.20;99.90
23717;DHT22;22094;52.130;5.598;2023-12-20T13:42:17;9.80;99.90
23717;DHT22;22094;52.130;5.598;2023-12-20T13:44:43;9.00;99.90
23717;DHT22;22094;52.130;5.598;2023-12-20T13:47:09;9.20;99.90
23717;DHT22;22094;52.130;5.598;2023-12-20T13:49:35;9.20;99.90
23717;DHT22;22094;52.130;5.598;2023-12-20T13:54:26;9.20;99.90
23717;DHT22;22094;52.130;5.598;2023-12-20T13:56:52;9.20;99.90
23717;DHT22;22094;52.130;5.598;2023-12-20T14:04:09;9.20;1.00
23717;DHT22;22094;52.130;5.598;2023-12-20T14:06:36;10.60;1.00
23717;DHT22;22094;52.130;5.598;2023-12-20T14:09:02;9.30;1.00
23717;DHT22;22094;52.130;5.598;2023-12-20T14:11:28;9.20;48.10
23717;DHT22;22094;52.130;5.598;2023-12-20T14:13:54;9.20;1.00
23717;DHT22;22094;52.130;5.598;2023-12-20T14:16:24;9.20;1.00
23717;DHT22;22094;52.130;5.598;2023-12-20T14:18:49;9.20;1.00
23717;DHT22;22094;52.130;5.598;2023-12-20T14:21:17;8.90;99.90
23717;DHT22;22094;52.130;5.598;2023-12-20T14:23:43;9.00;99.90
23717;DHT22;22094;52.130;5.598;2023-12-20T14:26:08;9.10;99.90
23717;DHT22;22094;52.130;5.598;2023-12-20T14:28:41;9.10;99.90
23717;DHT22;22094;52.130;5.598;2023-12-20T14:31:06;9.00;99.90
23717;DHT22;22094;52.130;5.598;2023-12-20T14:33:32;9.00;99.90
23717;DHT22;22094;52.130;5.598;2023-12-20T14:35:57;6.30;99.90
23717;DHT22;22094;52.130;5.598;2023-12-20T14:38:23;8.70;99.90
23717;DHT22;22094;52.130;5.598;2023-12-20T14:40:49;12.30;99.90
23717;DHT22;22094;52.130;5.598;2023-12-20T14:43:16;9.00;99.90
23717;DHT22;22094;52.130;5.598;2023-12-20T14:48:08;9.00;99.90
23717;DHT22;22094;52.130;5.598;2023-12-20T14:50:33;9.00;99.90
23717;DHT22;22094;52.130;5.598;2023-12-20T14:52:59;9.10;99.90
23717;DHT22;22094;52.130;5.598;2023-12-20T14:55:25;9.10;99.90
23717;DHT22;22094;52.130;5.598;2023-12-20T14:57:53;9.10;99.90
23717;DHT22;22094;52.130;5.598;2023-12-20T15:00:18;9.10;99.90
23717;DHT22;22094;52.130;5.598;2023-12-20T15:02:45;9.10;99.90
23717;DHT22;22094;52.130;5.598;2023-12-20T15:05:11;9.40;99.90
23717;DHT22;22094;52.130;5.598;2023-12-20T15:07:36;9.00;99.90
23717;DHT22;22094;52.130;5.598;2023-12-20T15:10:02;9.00;99.90
23717;DHT22;22094;52.130;5.598;2023-12-20T15:12:28;9.00;99.90
23717;DHT22;22094;52.130;5.598;2023-12-20T15:14:53;9.30;1.00
23717;DHT22;22094;52.130;5.598;2023-12-20T15:17:19;9.00;1.00
23717;DHT22;22094;52.130;5.598;2023-12-20T15:19:44;9.00;1.00
23717;DHT22;22094;52.130;5.598;2023-12-20T15:22:10;9.00;1.00
23717;DHT22;22094;52.130;5.598;2023-12-20T15:24:39;9.00;11.40
23717;DHT22;22094;52.130;5.598;2023-12-20T15:27:06;8.90;99.90
23717;DHT22;22094;52.130;5.598;2023-12-20T15:29:32;8.90;99.90
23717;DHT22;22094;52.130;5.598;2023-12-20T15:31:57;8.80;99.90
23717;DHT22;22094;52.130;5.598;2023-12-20T15:34:23;8.80;1.00
23717;DHT22;22094;52.130;5.598;2023-12-20T15:36:48;8.80;1.00
23717;DHT22;22094;52.130;5.598;2023-12-20T15:39:14;8.70;99.90
23717;DHT22;22094;52.130;5.598;2023-12-20T15:41:40;8.60;1.00
23717;DHT22;22094;52.130;5.598;2023-12-20T15:44:05;8.60;99.90
23717;DHT22;22094;52.130;5.598;2023-12-20T15:46:31;8.60;99.90
23717;DHT22;22094;52.130;5.598;2023-12-20T15:48:57;8.60;1.00
23717;DHT22;22094;52.130;5.598;2023-12-20T15:51:23;8.50;99.90
23717;DHT22;22094;52.130;5.598;2023-12-20T15:53:49;8.50;1.00
23717;DHT22;22094;52.130;5.598;2023-12-20T15:56:18;8.50;24.60
23717;DHT22;22094;52.130;5.598;2023-12-20T15:58:44;9.10;1.00
23717;DHT22;22094;52.130;5.598;2023-12-20T16:01:10;8.50;99.90
23717;DHT22;22094;52.130;5.598;2023-12-20T16:03:35;8.50;1.00
23717;DHT22;22094;52.130;5.598;2023-12-20T16:06:01;8.40;1.00
23717;DHT22;22094;52.130;5.598;2023-12-20T16:08:26;8.40;1.00
23717;DHT22;22094;52.130;5.598;2023-12-20T16:10:52;8.40;1.00
23717;DHT22;22094;52.130;5.598;2023-12-20T16:13:18;8.40;1.00
23717;DHT22;22094;52.130;5.598;2023-12-20T16:15:45;8.40;99.90
23717;DHT22;22094;52.130;5.598;2023-12-20T16:18:11;8.30;1.00
23717;DHT22;22094;52.130;5.598;2023-12-20T16:20:37;8.30;1.00
23717;DHT22;22094;52.130;5.598;2023-12-20T16:23:03;8.10;26.40
23717;DHT22;22094;52.130;5.598;2023-12-20T16:25:29;8.30;99.90
23717;DHT22;22094;52.130;5.598;2023-12-20T16:27:54;8.30;99.90
23717;DHT22;22094;52.130;5.598;2023-12-20T16:30:20;8.30;99.90
23717;DHT22;22094;52.130;5.598;2023-12-20T16:32:45;8.30;99.90
23717;DHT22;22094;52.130;5.598;2023-12-20T16:35:11;8.30;99.90
23717;DHT22;22094;52.130;5.598;2023-12-20T16:37:37;8.30;99.90